Time;durP1;ratioP1;P1;durP2;ratioP2;P2;SDS_P1;SDS_P2;PMS_P1;PMS_P2;Temp;Humidity;BMP_temperature;BMP_pressure;BME280_temperature;BME280_humidity;BME280_pressure;Samples;Min_cycle;Max_cycle;Signal;HPM_P1;HPM_P2
2021/10/25 00:07:01;;;;;;;21.52;10.65;;;3.20;99.90;;;;;;25714564;23;20615;-52
2021/10/25 00:17:06;;;;;;;21.38;11.43;;;3.20;99.90;;;;;;25688425;23;20315;-56
2021/10/25 00:27:09;;;;;;;19.10;9.55;;;3.30;99.90;;;;;;25743316;23;20020;-51
2021/10/25 00:37:11;;;;;;;26.77;11.25;;;3.30;99.90;;;;;;25666431;23;20067;-51
2021/10/25 00:47:14;;;;;;;22.67;8.95;;;3.40;99.90;;;;;;25711920;23;20059;-51
2021/10/25 00:57:17;;;;;;;14.30;7.72;;;3.30;99.90;;;;;;25712863;23;20009;-53
2021/10/25 01:07:20;;;;;;;16.27;8.32;;;3.20;99.90;;;;;;25712239;23;20042;-53
2021/10/25 01:17:25;;;;;;;11.68;5.05;;;3.20;99.90;;;;;;25686013;23;20009;-52
2021/10/25 01:27:28;;;;;;;12.13;6.70;;;3.40;99.90;;;;;;25711868;23;20017;-53
2021/10/25 01:37:34;;;;;;;15.73;7.03;;;3.50;99.90;;;;;;25662614;23;20017;-53
2021/10/25 01:47:37;;;;;;;14.50;6.85;;;3.40;99.90;;;;;;25711410;23;20039;-52
2021/10/25 01:57:41;;;;;;;11.32;6.20;;;3.30;99.90;;;;;;25711701;23;20036;-52
2021/10/25 02:07:45;;;;;;;8.07;4.55;;;3.20;99.90;;;;;;25710710;23;20377;-53
2021/10/25 02:17:49;;;;;;;9.30;4.93;;;3.20;99.90;;;;;;25685170;23;20009;-54
2021/10/25 02:27:53;;;;;;;7.53;3.75;;;3.20;99.90;;;;;;25686600;23;20127;-54
2021/10/25 02:37:58;;;;;;;4.78;2.65;;;3.30;99.90;;;;;;25692642;23;20090;-52
2021/10/25 02:48:05;;;;;;;4.97;2.72;;;3.20;99.90;;;;;;25694818;23;20032;-52
2021/10/25 02:58:08;;;;;;;3.22;1.92;;;3.20;99.90;;;;;;25692294;23;20067;-55
2021/10/25 03:08:12;;;;;;;3.47;2.03;;;3.40;99.90;;;;;;25691791;23;20012;-52
2021/10/25 03:18:17;;;;;;;5.25;2.63;;;3.40;99.90;;;;;;25718693;23;20448;-51
2021/10/25 03:28:20;;;;;;;3.78;2.50;;;3.30;99.90;;;;;;25715519;23;20043;-51
2021/10/25 03:38:24;;;;;;;3.05;1.60;;;3.10;99.90;;;;;;25716093;23;20074;-51
2021/10/25 03:48:53;;;;;;;2.83;1.60;;;3.20;99.90;;;;;;25716833;23;20377;-52
2021/10/25 04:30:21;;;;;;;1.95;1.20;;;3.20;99.90;;;;;;25718958;23;20321;-53
2021/10/25 04:40:24;;;;;;;2.22;1.17;;;3.00;99.90;;;;;;25667776;23;20402;-52
2021/10/25 04:50:27;;;;;;;2.20;1.00;;;3.20;99.90;;;;;;25738106;23;20004;-53
2021/10/25 05:00:48;;;;;;;2.05;1.10;;;3.00;99.90;;;;;;25714237;23;20079;-52
2021/10/25 05:10:51;;;;;;;2.47;1.10;;;3.00;99.90;;;;;;25689387;23;20376;-53
2021/10/25 05:20:53;;;;;;;1.63;1.00;;;2.90;99.90;;;;;;25661160;23;20020;-52
2021/10/25 05:30:58;;;;;;;2.55;1.00;;;2.90;99.90;;;;;;25713642;23;20008;-52
2021/10/25 05:41:09;;;;;;;2.15;1.00;;;3.00;99.90;;;;;;25662326;23;20100;-54
2021/10/25 05:51:15;;;;;;;2.75;1.27;;;2.90;99.90;;;;;;25661074;23;20028;-52
2021/10/25 06:01:20;;;;;;;2.33;0.77;;;2.90;99.90;;;;;;25735595;23;20016;-52
2021/10/25 06:11:36;;;;;;;1.63;0.82;;;2.90;99.90;;;;;;25710813;23;20030;-53
2021/10/25 06:21:39;;;;;;;2.13;1.10;;;3.00;99.90;;;;;;25708719;23;20059;-52
2021/10/25 06:31:45;;;;;;;1.83;1.00;;;3.20;99.90;;;;;;25714034;23;20012;-54
2021/10/25 06:41:51;;;;;;;7.90;1.10;;;3.40;99.90;;;;;;25713247;23;20008;-51
2021/10/25 06:52:09;;;;;;;1.48;0.90;;;3.60;99.90;;;;;;25711250;23;20008;-51
2021/10/25 07:02:13;;;;;;;1.80;1.00;;;3.90;99.90;;;;;;25713351;23;20008;-52
2021/10/25 07:12:17;;;;;;;1.95;0.80;;;4.30;99.90;;;;;;25712221;23;20012;-52
2021/10/25 08:04:22;;;;;;;1.27;0.70;;;7.40;99.90;;;;;;25669347;23;20043;-53
2021/10/25 08:14:34;;;;;;;1.10;0.60;;;7.80;99.90;;;;;;25705849;23;20012;-54
2021/10/25 08:24:40;;;;;;;1.00;0.50;;;8.10;99.90;;;;;;25711013;23;20070;-55
2021/10/25 08:45:31;;;;;;;1.80;1.05;;;9.10;99.90;;;;;;25571912;23;20450;-54
2021/10/25 08:55:38;;;;;;;2.03;1.27;;;9.50;99.90;;;;;;25587649;23;20017;-56
2021/10/25 09:05:58;;;;;;;2.15;1.30;;;9.90;99.90;;;;;;25585104;23;20013;-53
2021/10/25 09:16:06;;;;;;;1.52;1.00;;;10.10;99.90;;;;;;25585245;23;20079;-55
2021/10/25 09:26:31;;;;;;;2.67;1.80;;;10.60;99.90;;;;;;25712345;23;20050;-56
2021/10/25 09:36:38;;;;;;;1.92;1.00;;;11.40;99.90;;;;;;25736418;23;20013;-57
2021/10/25 09:57:11;;;;;;;2.10;1.30;;;12.00;99.90;;;;;;25717731;23;20078;-57
2021/10/25 10:07:18;;;;;;;2.45;1.70;;;12.20;99.90;;;;;;25720078;23;20043;-55
2021/10/25 10:17:53;;;;;;;2.10;1.40;;;11.90;99.90;;;;;;25692628;23;20020;-53
2021/10/25 10:28:02;;;;;;;2.22;1.50;;;11.70;99.90;;;;;;25690283;23;20320;-52
2021/10/25 10:38:05;;;;;;;2.97;1.85;;;11.40;99.90;;;;;;25668619;23;20017;-54
2021/10/25 10:48:32;;;;;;;3.75;2.25;;;11.40;99.90;;;;;;25697325;23;20066;-57
2021/10/25 10:59:06;;;;;;;2.58;1.65;;;11.40;99.90;;;;;;25700349;23;20039;-54
2021/10/25 11:09:11;;;;;;;5.00;2.30;;;11.20;99.90;;;;;;25749323;23;20063;-58
2021/10/25 11:19:14;;;;;;;3.90;2.25;;;11.50;99.90;;;;;;25702182;23;20067;-56
2021/10/25 11:29:27;;;;;;;3.40;2.30;;;11.50;99.90;;;;;;25754691;23;20055;-54
2021/10/25 11:39:37;;;;;;;3.75;2.17;;;11.50;99.90;;;;;;25730573;23;20016;-55
2021/10/25 11:49:41;;;;;;;3.85;2.25;;;11.50;99.90;;;;;;25702874;23;20016;-56
2021/10/25 11:59:59;;;;;;;4.57;2.65;;;11.40;99.90;;;;;;25727036;23;20008;-56
2021/10/25 12:10:06;;;;;;;5.67;2.90;;;11.20;99.90;;;;;;25730388;23;20016;-55
2021/10/25 12:20:21;;;;;;;4.60;2.42;;;11.30;99.90;;;;;;25701948;23;20046;-52
2021/10/25 12:30:23;;;;;;;4.28;2.45;;;11.30;99.90;;;;;;25754532;23;20013;-57
2021/10/25 12:40:27;;;;;;;4.97;2.92;;;11.40;99.90;;;;;;25703771;23;20016;-53
2021/10/25 12:50:33;;;;;;;4.38;2.55;;;11.30;99.90;;;;;;25695468;23;20032;-53
2021/10/25 13:00:39;;;;;;;4.40;2.45;;;11.00;99.90;;;;;;25745021;23;20012;-55
2021/10/25 13:10:44;;;;;;;6.72;3.15;;;10.70;99.90;;;;;;25753559;23;20088;-53
2021/10/25 13:20:47;;;;;;;4.60;3.03;;;10.50;99.90;;;;;;25722494;23;20021;-55
2021/10/25 13:30:50;;;;;;;5.03;3.20;;;10.30;99.90;;;;;;25725264;23;20021;-52
2021/10/25 13:40:54;;;;;;;5.28;2.70;;;10.20;99.90;;;;;;25723747;23;20013;-54
2021/10/25 13:51:00;;;;;;;5.68;2.92;;;10.20;99.90;;;;;;25696605;23;20035;-52
2021/10/25 14:01:04;;;;;;;4.38;2.95;;;10.20;99.90;;;;;;25716526;23;20009;-55
2021/10/25 14:11:08;;;;;;;5.78;3.25;;;9.80;99.90;;;;;;25694453;23;20016;-55
2021/10/25 14:21:15;;;;;;;5.97;3.38;;;9.50;99.90;;;;;;25696565;23;20076;-54
2021/10/25 14:31:18;;;;;;;4.88;3.30;;;9.40;99.90;;;;;;25750715;23;20071;-53
2021/10/25 14:41:27;;;;;;;5.55;3.72;;;8.90;99.90;;;;;;25749923;23;20055;-54
2021/10/25 15:01:52;;;;;;;6.13;3.97;;;8.30;99.90;;;;;;25727717;23;20323;-52
2021/10/25 15:11:57;;;;;;;6.88;3.95;;;8.10;99.90;;;;;;25833494;22;20547;-53
2021/10/25 15:22:01;;;;;;;6.68;4.03;;;7.70;99.90;;;;;;25813820;23;20028;-53
2021/10/25 15:32:04;;;;;;;7.63;4.68;;;7.30;99.90;;;;;;25803781;22;20008;-52
2021/10/25 15:42:11;;;;;;;6.65;4.60;;;6.90;99.90;;;;;;25792084;22;20017;-53
2021/10/25 15:52:16;;;;;;;7.93;4.18;;;6.60;99.90;;;;;;25669357;23;20008;-52
2021/10/25 16:02:20;;;;;;;5.18;3.10;;;6.10;99.90;;;;;;25726116;23;20366;-51
2021/10/25 16:12:23;;;;;;;3.28;1.65;;;5.70;99.90;;;;;;25698004;23;20008;-54
2021/10/25 16:22:28;;;;;;;4.85;1.80;;;5.30;99.90;;;;;;25695689;23;20021;-52
2021/10/25 16:32:31;;;;;;;3.08;1.25;;;5.10;99.90;;;;;;25741203;23;20008;-51
2021/10/25 16:42:33;;;;;;;4.97;1.20;;;4.90;99.90;;;;;;25714069;23;20012;-53
2021/10/25 16:52:57;;;;;;;0.90;0.50;;;4.90;99.90;;;;;;25662163;23;20025;-52
2021/10/25 17:03:10;;;;;;;1.20;0.55;;;5.00;99.90;;;;;;25689968;23;20004;-52
2021/10/25 17:13:13;;;;;;;2.63;0.47;;;5.00;99.90;;;;;;25577935;23;20009;-53
2021/10/25 17:23:20;;;;;;;1.58;0.50;;;4.90;99.90;;;;;;25552318;23;20071;-51
2021/10/25 17:33:24;;;;;;;1.10;0.40;;;4.70;99.90;;;;;;25555089;23;20013;-53
2021/10/25 17:43:28;;;;;;;0.82;0.30;;;4.80;99.90;;;;;;25552570;23;20529;-52
2021/10/25 17:53:32;;;;;;;0.98;0.28;;;4.80;99.90;;;;;;25628352;23;20079;-51
2021/10/25 18:03:40;;;;;;;0.73;0.30;;;4.80;99.90;;;;;;25714113;23;20016;-53
2021/10/25 18:13:43;;;;;;;2.28;0.25;;;4.70;99.90;;;;;;25690855;23;20282;-52
2021/10/25 18:23:48;;;;;;;0.50;0.20;;;4.60;99.80;;;;;;25713204;23;20096;-52
2021/10/25 18:33:56;;;;;;;0.75;0.40;;;4.50;99.90;;;;;;25717880;23;20012;-53
2021/10/25 18:44:07;;;;;;;1.00;0.30;;;4.30;99.90;;;;;;25717326;23;20012;-52
2021/10/25 18:54:10;;;;;;;0.80;0.40;;;4.00;99.90;;;;;;25672561;23;20009;-52
2021/10/25 19:04:14;;;;;;;0.85;0.30;;;3.80;99.90;;;;;;25723444;23;20499;-51
2021/10/25 19:14:18;;;;;;;0.63;0.30;;;3.70;99.90;;;;;;25726629;23;20016;-51
2021/10/25 19:24:22;;;;;;;0.57;0.30;;;3.80;99.90;;;;;;25726574;23;20032;-52
2021/10/25 19:34:28;;;;;;;0.57;0.30;;;3.70;99.90;;;;;;25711773;22;20525;-51
2021/10/25 19:44:34;;;;;;;1.05;0.30;;;3.70;99.90;;;;;;25660283;23;20343;-51
2021/10/25 19:54:38;;;;;;;1.40;0.40;;;3.30;99.90;;;;;;25686669;23;20051;-51
2021/10/25 20:04:43;;;;;;;1.08;0.30;;;3.10;99.90;;;;;;25684833;23;20082;-52
2021/10/25 20:14:47;;;;;;;8.35;2.83;;;3.00;99.90;;;;;;25690375;23;20020;-58
2021/10/25 20:24:50;;;;;;;5.93;2.25;;;2.80;99.90;;;;;;25712870;23;20025;-56
2021/10/25 20:34:57;;;;;;;1.67;0.60;;;2.60;99.90;;;;;;25685946;23;20017;-61
2021/10/25 20:45:02;;;;;;;0.77;0.50;;;2.30;99.90;;;;;;25686041;23;20013;-57
2021/10/25 20:55:06;;;;;;;0.93;0.38;;;2.10;99.90;;;;;;25711517;23;20079;-58
2021/10/25 21:05:09;;;;;;;1.20;0.40;;;2.10;99.90;;;;;;25709929;23;20378;-59
2021/10/25 21:15:12;;;;;;;0.50;0.20;;;2.10;99.90;;;;;;25710223;23;20354;-61
2021/10/25 21:25:16;;;;;;;0.90;0.30;;;2.10;99.90;;;;;;25710200;23;20630;-56
2021/10/25 21:35:21;;;;;;;1.02;0.30;;;1.90;99.90;;;;;;25684659;23;20005;-52
2021/10/25 21:45:29;;;;;;;1.08;0.30;;;1.80;99.90;;;;;;25685893;23;20035;-52
2021/10/25 21:55:34;;;;;;;2.42;0.30;;;1.80;99.90;;;;;;25709380;23;20326;-50
2021/10/25 22:05:36;;;;;;;0.95;0.30;;;1.80;99.90;;;;;;25709282;23;20086;-52
2021/10/25 22:15:41;;;;;;;0.80;0.30;;;2.00;99.90;;;;;;25684857;23;20016;-51
2021/10/25 22:25:44;;;;;;;0.52;0.32;;;1.90;99.90;;;;;;25683367;23;20025;-51
2021/10/25 22:35:47;;;;;;;1.17;0.47;;;1.70;99.90;;;;;;25708287;23;20074;-51
2021/10/25 22:45:51;;;;;;;1.08;0.50;;;1.70;99.90;;;;;;25709962;23;20031;-52
2021/10/25 22:55:54;;;;;;;2.25;0.60;;;1.90;99.90;;;;;;25716440;23;20008;-50
2021/10/25 23:05:57;;;;;;;1.10;0.50;;;1.70;99.90;;;;;;25716438;23;20129;-51
2021/10/25 23:16:00;;;;;;;1.17;0.60;;;1.80;99.90;;;;;;25715347;23;20016;-51
2021/10/25 23:26:03;;;;;;;1.27;0.45;;;1.80;99.90;;;;;;25690033;23;20092;-53
2021/10/25 23:36:07;;;;;;;1.15;0.70;;;1.80;99.90;;;;;;25714744;23;20012;-52
2021/10/25 23:46:12;;;;;;;1.65;0.85;;;1.70;99.90;;;;;;25714305;23;20012;-52
2021/10/25 23:56:16;;;;;;;2.88;0.82;;;1.50;99.90;;;;;;25687935;23;20012;-51
